Thunder radar more information blitzortung!


Radar de pluja more information rain snow radar


Visita la nostra xarxa de llocs de meteo:

Template documentation
and downloads

And another site



No particular awareness of the weather is required.    There are no Weather-warnings

Pagina Historial Weather Underground text

Diari Resum Novembre 1, 2017 Unitats:  Mètric    Imperial   Tant
« Previous Dia
SegĂźent Dia »
Diari Setmana Mensual Anual Personalitzada
  Maxima: Minima: Media:
Temperatura: 20.6 °C 10.5 °C 15.6 °C
Punt de rosada: 13.3 °C 6.6 °C 11.1 °C
Humitat: 89 % 61 % 76 %
Wind Speed: 16.9 km/h 0.0 km/h 3.2 km/h
RĂ fegues de vent: 16.9 km/h - -
Vent:- - South
Pression baro: 1024.9 hPa 1020.9 hPa -
Precipitacions: 0.0 mm    
Historical Graphs
 
 
Dades de taula per Novembre 1, 2017
Temps Temperatura Punt de rosada Pression baro Vent Wind Speed RĂ fegues de vent Humitat Rainfall Rate (Hourly)
00:03 10.5 °C 6.6 °C 1023.9 hPa SW 3.7 km/h 3.7 km/h 77 % 0.0 mm
03:25 12.7 °C 8.9 °C 1024.9 hPa Calm   1.6 km/h 78 % 0.0 mm
03:35 12.7 °C 8.6 °C 1024.9 hPa East 3.2 km/h 3.2 km/h 76 % 0.0 mm
03:45 12.9 °C 8.9 °C 1024.9 hPa SE 1.6 km/h 3.2 km/h 77 % 0.0 mm
03:55 13.1 °C 8.9 °C 1024.9 hPa ESE 1.6 km/h 3.2 km/h 76 % 0.0 mm
10:06 12.9 °C 8.6 °C 1024.9 hPa SE 3.7 km/h 3.7 km/h 75 % 0.0 mm
10:07 12.9 °C 8.6 °C 1024.9 hPa SE 3.7 km/h 3.7 km/h 75 % 0.0 mm
10:12 12.8 °C 8.5 °C 1024.9 hPa ESE 3.7 km/h 3.7 km/h 75 % 0.0 mm
10:17 13.0 °C 8.7 °C 1024.9 hPa ESE 3.7 km/h 3.7 km/h 75 % 0.0 mm
10:22 13.3 °C 9.2 °C 1024.9 hPa ENE 3.7 km/h 3.7 km/h 76 % 0.0 mm
10:27 13.3 °C 8.9 °C 1024.9 hPa NNE 3.7 km/h 3.7 km/h 75 % 0.0 mm
10:32 13.4 °C 9.1 °C 1024.9 hPa NNE 3.7 km/h 3.7 km/h 75 % 0.0 mm
10:37 13.5 °C 8.9 °C 1024.9 hPa ENE 5.6 km/h 5.6 km/h 74 % 0.0 mm
10:42 14.0 °C 9.4 °C 1024.9 hPa NNW 5.6 km/h 5.6 km/h 74 % 0.0 mm
10:47 14.4 °C 9.8 °C 1024.9 hPa ENE 1.9 km/h 1.9 km/h 74 % 0.0 mm
10:52 14.6 °C 10.0 °C 1024.9 hPa NW 3.7 km/h 3.7 km/h 74 % 0.0 mm
10:57 14.3 °C 9.3 °C 1024.9 hPa NNE 3.9 km/h 4.2 km/h 72 % 0.0 mm
11:02 13.6 °C 8.7 °C 1024.9 hPa ENE 7.4 km/h 7.4 km/h 72 % 0.0 mm
11:07 13.8 °C 9.1 °C 1024.9 hPa NNE 1.9 km/h 1.9 km/h 73 % 0.0 mm
11:12 13.9 °C 8.9 °C 1024.9 hPa NNE 4.2 km/h 5.0 km/h 72 % 0.0 mm
11:17 14.0 °C 9.1 °C 1024.9 hPa ENE 3.9 km/h 3.9 km/h 72 % 0.0 mm
11:22 14.0 °C 9.1 °C 1023.9 hPa WSW 3.7 km/h 3.7 km/h 72 % 0.0 mm
11:27 14.4 °C 9.4 °C 1023.9 hPa ENE 1.9 km/h   72 % 0.0 mm
11:37 14.7 °C 9.7 °C 1023.9 hPa NNE 3.7 km/h 3.7 km/h 72 % 0.0 mm
11:42 15.0 °C 9.8 °C 1023.9 hPa WSW 5.6 km/h 5.6 km/h 71 % 0.0 mm
11:47 15.5 °C 10.1 °C 1023.9 hPa ESE 5.6 km/h 5.6 km/h 70 % 0.0 mm
11:52 15.7 °C 10.2 °C 1023.9 hPa ENE 2.3 km/h 2.3 km/h 70 % 0.0 mm
11:57 15.5 °C 9.8 °C 1023.9 hPa SE 5.6 km/h 5.6 km/h 69 % 0.0 mm
12:02 16.0 °C 10.6 °C 1023.9 hPa ESE 3.2 km/h 3.2 km/h 70 % 0.0 mm
12:07 16.4 °C 10.9 °C 1023.9 hPa ENE 3.7 km/h 3.7 km/h 70 % 0.0 mm
12:12 16.5 °C 10.8 °C 1023.9 hPa ENE 3.9 km/h 3.9 km/h 69 % 0.0 mm
12:17 16.6 °C 10.7 °C 1023.9 hPa ESE 3.7 km/h 3.7 km/h 68 % 0.0 mm
12:22 16.8 °C 10.8 °C 1023.9 hPa ENE 5.6 km/h 5.6 km/h 68 % 0.0 mm
12:27 16.7 °C 10.8 °C 1023.9 hPa SE 5.6 km/h 5.6 km/h 68 % 0.0 mm
12:32 17.1 °C 11.2 °C 1023.9 hPa ESE 3.7 km/h 3.7 km/h 68 % 0.0 mm
12:37 17.5 °C 11.5 °C 1023.9 hPa SSE 5.6 km/h 5.6 km/h 68 % 0.0 mm
12:42 17.6 °C 11.4 °C 1023.9 hPa SE 5.6 km/h 5.6 km/h 67 % 0.0 mm
12:47 17.6 °C 11.6 °C 1023.9 hPa WSW 3.7 km/h   68 % 0.0 mm
12:52 17.7 °C 11.5 °C 1023.9 hPa ENE 4.7 km/h 4.7 km/h 67 % 0.0 mm
12:57 17.7 °C 11.5 °C 1023.9 hPa ENE 5.8 km/h 5.8 km/h 67 % 0.0 mm
13:02 18.1 °C 11.9 °C 1023.9 hPa SSE 4.2 km/h 4.2 km/h 67 % 0.0 mm
13:07 17.9 °C 11.7 °C 1022.9 hPa East 5.6 km/h 5.6 km/h 67 % 0.0 mm
13:12 18.2 °C 11.9 °C 1022.9 hPa SW 3.7 km/h 3.7 km/h 67 % 0.0 mm
13:17 18.4 °C 12.2 °C 1022.9 hPa SSE 5.6 km/h   67 % 0.0 mm
13:22 18.4 °C 12.2 °C 1022.9 hPa East 1.9 km/h 1.9 km/h 67 % 0.0 mm
13:27 18.3 °C 11.8 °C 1022.9 hPa SSE 9.3 km/h 9.3 km/h 66 % 0.0 mm
13:32 18.6 °C 12.3 °C 1022.9 hPa South 6.9 km/h 6.9 km/h 67 % 0.0 mm
13:37 19.1 °C 12.6 °C 1022.9 hPa SW 5.6 km/h 5.6 km/h 66 % 0.0 mm
13:42 19.4 °C 12.7 °C 1022.9 hPa SSW 7.4 km/h 7.4 km/h 65 % 0.0 mm
13:47 19.1 °C 12.4 °C 1022.9 hPa ESE 3.7 km/h 3.7 km/h 65 % 0.0 mm
13:52 19.0 °C 12.3 °C 1022.9 hPa SSE 3.7 km/h 3.7 km/h 65 % 0.0 mm
13:57 19.2 °C 12.4 °C 1022.9 hPa South 5.6 km/h 5.6 km/h 65 % 0.0 mm
14:02 19.5 °C 12.7 °C 1022.9 hPa West 4.7 km/h 4.7 km/h 65 % 0.0 mm
14:07 19.6 °C 12.6 °C 1021.9 hPa SW 7.4 km/h 7.4 km/h 64 % 0.0 mm
14:12 19.4 °C 12.4 °C 1021.9 hPa SW 9.3 km/h 9.3 km/h 64 % 0.0 mm
14:17 19.4 °C 12.4 °C 1021.9 hPa WSW 3.9 km/h 3.9 km/h 64 % 0.0 mm
14:22 19.7 °C 12.4 °C 1020.9 hPa SE 9.3 km/h 9.3 km/h 63 % 0.0 mm
14:27 20.0 °C 12.7 °C 1020.9 hPa WSW 3.9 km/h 3.9 km/h 63 % 0.0 mm
14:32 20.2 °C 12.7 °C 1020.9 hPa SSW 3.2 km/h 3.2 km/h 62 % 0.0 mm
14:37 20.6 °C 13.3 °C 1021.9 hPa SW 7.4 km/h 7.4 km/h 63 % 0.0 mm
14:42 20.4 °C 12.9 °C 1021.9 hPa SW 7.4 km/h 7.4 km/h 62 % 0.0 mm
14:47 20.0 °C 12.2 °C 1021.9 hPa South 1.9 km/h 1.9 km/h 61 % 0.0 mm
14:52 19.9 °C 12.7 °C 1021.9 hPa SW 5.6 km/h 5.6 km/h 63 % 0.0 mm
14:57 19.8 °C 12.3 °C 1021.9 hPa SW 5.8 km/h 5.8 km/h 62 % 0.0 mm
15:02 19.5 °C 12.0 °C 1021.9 hPa SW 3.7 km/h 3.9 km/h 62 % 0.0 mm
15:07 19.5 °C 12.0 °C 1021.9 hPa SW 5.0 km/h 5.0 km/h 62 % 0.0 mm
15:12 19.9 °C 12.4 °C 1021.9 hPa SW 5.6 km/h 5.6 km/h 62 % 0.0 mm
15:17 20.3 °C 12.6 °C 1021.9 hPa SW 16.9 km/h 16.9 km/h 61 % 0.0 mm
15:22 20.1 °C 12.3 °C 1021.9 hPa SW 11.1 km/h 11.1 km/h 61 % 0.0 mm
15:27 20.2 °C 12.4 °C 1021.9 hPa SW 11.1 km/h 11.1 km/h 61 % 0.0 mm
15:28 20.2 °C 12.4 °C 1021.9 hPa WNW 11.1 km/h 11.1 km/h 61 % 0.0 mm
15:33 19.6 °C 12.1 °C 1021.9 hPa SW 9.3 km/h 9.3 km/h 62 % 0.0 mm
15:38 19.6 °C 12.1 °C 1021.9 hPa SSW 3.7 km/h   62 % 0.0 mm
15:43 20.0 °C 12.2 °C 1021.9 hPa SW 7.4 km/h 7.4 km/h 61 % 0.0 mm
15:48 20.0 °C 12.2 °C 1021.9 hPa SW 11.1 km/h 11.1 km/h 61 % 0.0 mm
15:53 19.7 °C 12.2 °C 1021.9 hPa SSW 13.0 km/h 13.0 km/h 62 % 0.0 mm
15:58 19.5 °C 12.0 °C 1021.9 hPa SW 7.4 km/h 7.4 km/h 62 % 0.0 mm
16:03 19.3 °C 11.8 °C 1021.9 hPa SW 9.3 km/h 9.3 km/h 62 % 0.0 mm
16:08 19.3 °C 12.1 °C 1021.9 hPa South 7.4 km/h 7.4 km/h 63 % 0.0 mm
16:13 19.1 °C 11.9 °C 1021.9 hPa SW 9.3 km/h 9.3 km/h 63 % 0.0 mm
16:18 19.0 °C 11.8 °C 1021.9 hPa South 7.4 km/h 7.4 km/h 63 % 0.0 mm
16:23 19.0 °C 11.8 °C 1021.9 hPa SSW 9.3 km/h 9.3 km/h 63 % 0.0 mm
16:28 18.9 °C 12.2 °C 1021.9 hPa SW 7.4 km/h 7.4 km/h 65 % 0.0 mm
16:33 18.8 °C 12.1 °C 1021.9 hPa SW 9.3 km/h 9.3 km/h 65 % 0.0 mm
16:38 18.4 °C 11.7 °C 1021.9 hPa WSW 11.1 km/h 11.1 km/h 65 % 0.0 mm
16:43 18.3 °C 11.8 °C 1021.9 hPa South 5.6 km/h 5.8 km/h 66 % 0.0 mm
16:48 18.2 °C 11.7 °C 1021.9 hPa SW 14.8 km/h 14.8 km/h 66 % 0.0 mm
16:53 18.1 °C 11.7 °C 1021.9 hPa WSW 7.4 km/h 7.4 km/h 66 % 0.0 mm
16:58 17.9 °C 11.7 °C 1021.9 hPa SW 9.3 km/h 9.3 km/h 67 % 0.0 mm
17:03 17.9 °C 11.7 °C 1021.9 hPa WSW 9.3 km/h 9.3 km/h 67 % 0.0 mm
17:08 17.8 °C 11.6 °C 1021.9 hPa SSW 5.3 km/h 5.3 km/h 67 % 0.0 mm
17:13 17.6 °C 11.6 °C 1021.9 hPa SW 7.4 km/h 7.4 km/h 68 % 0.0 mm
17:18 17.4 °C 11.4 °C 1021.9 hPa SSW 9.3 km/h 9.3 km/h 68 % 0.0 mm
17:23 17.3 °C 11.3 °C 1021.9 hPa SW 7.4 km/h 7.4 km/h 68 % 0.0 mm
17:28 17.1 °C 11.4 °C 1021.9 hPa SW 7.4 km/h 7.4 km/h 69 % 0.0 mm
17:33 17.0 °C 11.5 °C 1021.9 hPa SW 7.4 km/h 7.4 km/h 70 % 0.0 mm
17:38 16.8 °C 11.5 °C 1021.9 hPa WSW 5.6 km/h 5.6 km/h 71 % 0.0 mm
17:43 16.7 °C 11.6 °C 1021.9 hPa WSW 3.7 km/h 3.7 km/h 72 % 0.0 mm
17:48 16.6 °C 11.6 °C 1021.9 hPa SW 7.4 km/h 7.4 km/h 72 % 0.0 mm
17:53 16.5 °C 11.7 °C 1022.9 hPa SW 3.7 km/h 3.7 km/h 73 % 0.0 mm
17:58 16.4 °C 11.6 °C 1022.9 hPa SW 3.9 km/h 3.9 km/h 73 % 0.0 mm
18:03 16.3 °C 11.7 °C 1022.9 hPa WSW 3.7 km/h 3.7 km/h 74 % 0.0 mm
18:08 16.2 °C 11.6 °C 1020.9 hPa WSW 3.7 km/h 3.7 km/h 74 % 0.0 mm
18:13 16.1 °C 11.4 °C 1020.9 hPa WSW 3.7 km/h 3.7 km/h 74 % 0.0 mm
18:15 13.4 °C 10.9 °C 1022.9 hPa Calm     85 % 0.0 mm
18:18 16.0 °C 11.6 °C 1020.9 hPa WSW 2.3 km/h 2.3 km/h 75 % 0.0 mm
18:23 16.0 °C 11.6 °C 1021.9 hPa SW 1.9 km/h   75 % 0.0 mm
18:25 13.4 °C 10.9 °C 1021.9 hPa Calm   1.6 km/h 85 % 0.0 mm
18:28 15.9 °C 11.7 °C 1021.9 hPa SW 1.9 km/h   76 % 0.0 mm
18:33 15.8 °C 11.6 °C 1021.9 hPa WSW 1.9 km/h   76 % 0.0 mm
18:35 13.5 °C 11.0 °C 1021.9 hPa Calm     85 % 0.0 mm
18:38 15.7 °C 11.5 °C 1021.9 hPa Calm     76 % 0.0 mm
18:43 15.6 °C 11.4 °C 1021.9 hPa Calm     76 % 0.0 mm
18:45 13.3 °C 10.8 °C 1021.9 hPa Calm   3.2 km/h 85 % 0.0 mm
18:48 15.6 °C 11.6 °C 1021.9 hPa WSW 2.6 km/h 2.6 km/h 77 % 0.0 mm
18:53 15.6 °C 11.6 °C 1021.9 hPa West 2.6 km/h 2.6 km/h 77 % 0.0 mm
18:55 13.2 °C 10.7 °C 1021.9 hPa Calm   3.2 km/h 85 % 0.0 mm
18:58 15.6 °C 11.6 °C 1021.9 hPa West 3.7 km/h 3.7 km/h 77 % 0.0 mm
19:03 15.5 °C 11.5 °C 1021.9 hPa WSW 1.9 km/h 1.9 km/h 77 % 0.0 mm
19:05 13.2 °C 10.9 °C 1021.9 hPa Calm   3.2 km/h 86 % 0.0 mm
19:08 15.5 °C 11.7 °C 1021.9 hPa Calm     78 % 0.0 mm
19:13 15.4 °C 11.6 °C 1021.9 hPa Calm     78 % 0.0 mm
19:15 13.2 °C 10.9 °C 1020.9 hPa Calm     86 % 0.0 mm
19:18 15.2 °C 11.4 °C 1021.9 hPa Calm     78 % 0.0 mm
19:23 15.1 °C 11.3 °C 1021.9 hPa Calm     78 % 0.0 mm
19:25 13.1 °C 10.8 °C 1021.9 hPa NE 1.6 km/h 3.2 km/h 86 % 0.0 mm
19:28 15.1 °C 11.5 °C 1021.9 hPa Calm     79 % 0.0 mm
19:33 15.1 °C 11.5 °C 1021.9 hPa Calm     79 % 0.0 mm
19:35 13.1 °C 10.8 °C 1021.9 hPa Calm   3.2 km/h 86 % 0.0 mm
19:38 15.0 °C 11.4 °C 1021.9 hPa Calm     79 % 0.0 mm
19:43 14.9 °C 11.3 °C 1021.9 hPa Calm     79 % 0.0 mm
19:45 13.0 °C 10.9 °C 1020.9 hPa Calm     87 % 0.0 mm
19:48 14.9 °C 11.3 °C 1021.9 hPa West 1.4 km/h   79 % 0.0 mm
19:53 14.9 °C 11.3 °C 1021.9 hPa West 2.3 km/h 2.3 km/h 79 % 0.0 mm
19:55 13.0 °C 10.9 °C 1021.9 hPa Calm   3.2 km/h 87 % 0.0 mm
19:58 14.9 °C 11.3 °C 1021.9 hPa Calm     79 % 0.0 mm
20:03 14.8 °C 11.4 °C 1021.9 hPa Calm     80 % 0.0 mm
20:05 13.0 °C 10.9 °C 1021.9 hPa Calm     87 % 0.0 mm
20:08 14.9 °C 11.5 °C 1021.9 hPa Calm     80 % 0.0 mm
20:13 14.9 °C 11.5 °C 1021.9 hPa Calm     80 % 0.0 mm
20:15 13.1 °C 11.0 °C 1021.9 hPa Calm     87 % 0.0 mm
20:18 14.9 °C 11.5 °C 1021.9 hPa Calm     80 % 0.0 mm
20:23 14.9 °C 11.5 °C 1021.9 hPa Calm     80 % 0.0 mm
20:25 13.1 °C 11.0 °C 1021.9 hPa Calm   3.2 km/h 87 % 0.0 mm
20:28 14.8 °C 11.4 °C 1021.9 hPa Calm     80 % 0.0 mm
20:33 14.6 °C 11.2 °C 1021.9 hPa West 1.9 km/h 1.9 km/h 80 % 0.0 mm
20:35 13.1 °C 11.0 °C 1021.9 hPa SW 1.6 km/h 3.2 km/h 87 % 0.0 mm
20:38 14.5 °C 11.1 °C 1021.9 hPa Calm     80 % 0.0 mm
20:43 14.5 °C 11.1 °C 1021.9 hPa Calm     80 % 0.0 mm
20:45 13.1 °C 11.0 °C 1020.9 hPa Calm     87 % 0.0 mm
20:48 14.4 °C 11.0 °C 1021.9 hPa Calm     80 % 0.0 mm
20:53 14.3 °C 10.9 °C 1021.9 hPa Calm     80 % 0.0 mm
20:55 13.0 °C 10.9 °C 1021.9 hPa Calm   3.2 km/h 87 % 0.0 mm
20:58 14.3 °C 11.1 °C 1021.9 hPa Calm     81 % 0.0 mm
21:03 14.4 °C 11.0 °C 1021.9 hPa West 1.9 km/h 1.9 km/h 80 % 0.0 mm
21:05 12.9 °C 10.9 °C 1021.9 hPa Calm     88 % 0.0 mm
21:08 14.4 °C 11.2 °C 1021.9 hPa Calm     81 % 0.0 mm
21:13 14.3 °C 11.1 °C 1021.9 hPa Calm     81 % 0.0 mm
21:15 12.8 °C 10.8 °C 1021.9 hPa Calm     88 % 0.0 mm
21:18 14.3 °C 11.1 °C 1021.9 hPa Calm     81 % 0.0 mm
21:23 14.2 °C 11.2 °C 1021.9 hPa Calm     82 % 0.0 mm
21:25 12.7 °C 10.8 °C 1021.9 hPa Calm   1.6 km/h 88 % 0.0 mm
21:28 14.1 °C 11.1 °C 1021.9 hPa Calm     82 % 0.0 mm
21:33 14.0 °C 11.0 °C 1021.9 hPa Calm     82 % 0.0 mm
21:35 12.7 °C 10.8 °C 1021.9 hPa Calm   1.6 km/h 88 % 0.0 mm
21:38 14.0 °C 11.0 °C 1022.9 hPa Calm     82 % 0.0 mm
21:43 14.0 °C 11.0 °C 1022.9 hPa Calm     82 % 0.0 mm
21:45 12.6 °C 10.7 °C 1021.9 hPa Calm     88 % 0.0 mm
21:48 13.9 °C 10.9 °C 1022.9 hPa Calm     82 % 0.0 mm
21:53 14.0 °C 11.0 °C 1022.9 hPa West 1.9 km/h 1.9 km/h 82 % 0.0 mm
21:55 12.6 °C 10.7 °C 1021.9 hPa West 3.2 km/h 3.2 km/h 88 % 0.0 mm
21:58 14.0 °C 11.2 °C 1022.9 hPa Calm     83 % 0.0 mm
22:03 13.9 °C 11.1 °C 1022.9 hPa Calm     83 % 0.0 mm
22:05 12.6 °C 10.7 °C 1021.9 hPa North 1.6 km/h 3.2 km/h 88 % 0.0 mm
22:08 13.9 °C 11.1 °C 1022.9 hPa Calm     83 % 0.0 mm
22:13 13.9 °C 11.1 °C 1022.9 hPa Calm     83 % 0.0 mm
22:15 12.5 °C 10.7 °C 1021.9 hPa Calm   1.6 km/h 89 % 0.0 mm
22:18 13.9 °C 11.1 °C 1022.9 hPa Calm     83 % 0.0 mm
22:23 14.0 °C 11.2 °C 1022.9 hPa Calm     83 % 0.0 mm
22:25 12.5 °C 10.7 °C 1020.9 hPa Calm   1.6 km/h 89 % 0.0 mm
22:28 14.0 °C 11.2 °C 1022.9 hPa WSW 3.7 km/h 3.7 km/h 83 % 0.0 mm
22:33 14.1 °C 11.3 °C 1022.9 hPa WSW 1.9 km/h 1.9 km/h 83 % 0.0 mm
22:35 12.1 °C 10.0 °C 1020.9 hPa West 3.2 km/h 4.8 km/h 87 % 0.0 mm
22:38 14.0 °C 11.2 °C 1022.9 hPa Calm     83 % 0.0 mm
22:43 14.0 °C 11.2 °C 1022.9 hPa Calm     83 % 0.0 mm
22:45 12.1 °C 10.2 °C 1020.9 hPa West 3.2 km/h 4.8 km/h 88 % 0.0 mm
22:48 14.0 °C 11.2 °C 1022.9 hPa WSW 2.3 km/h 2.3 km/h 83 % 0.0 mm
22:53 14.0 °C 11.2 °C 1022.9 hPa Calm     83 % 0.0 mm
22:55 12.0 °C 9.9 °C 1020.9 hPa SW 3.2 km/h 6.4 km/h 87 % 0.0 mm
22:58 14.0 °C 11.3 °C 1022.9 hPa SE 2.3 km/h 2.3 km/h 84 % 0.0 mm
23:03 13.9 °C 11.2 °C 1022.9 hPa Calm     84 % 0.0 mm
23:05 12.2 °C 10.4 °C 1020.9 hPa Calm   3.2 km/h 89 % 0.0 mm
23:08 13.9 °C 11.2 °C 1022.9 hPa Calm     84 % 0.0 mm
23:13 14.0 °C 11.3 °C 1022.9 hPa Calm     84 % 0.0 mm
23:15 12.1 °C 10.3 °C 1020.9 hPa Calm     89 % 0.0 mm
23:18 14.0 °C 11.3 °C 1022.9 hPa Calm     84 % 0.0 mm
23:23 13.8 °C 11.2 °C 1022.9 hPa SW 1.9 km/h   84 % 0.0 mm
23:25 12.1 °C 10.3 °C 1020.9 hPa WSW 1.6 km/h 3.2 km/h 89 % 0.0 mm
23:28 13.8 °C 11.2 °C 1022.9 hPa WNW 1.9 km/h   84 % 0.0 mm
23:33 13.8 °C 11.2 °C 1022.9 hPa Calm     84 % 0.0 mm
23:35 12.1 °C 10.3 °C 1020.9 hPa Calm   1.6 km/h 89 % 0.0 mm
23:38 13.8 °C 11.2 °C 1022.9 hPa Calm     84 % 0.0 mm
23:43 13.8 °C 11.2 °C 1022.9 hPa Calm     84 % 0.0 mm
23:45 12.2 °C 10.4 °C 1020.9 hPa Calm     89 % 0.0 mm
23:48 13.8 °C 11.2 °C 1022.9 hPa Calm     84 % 0.0 mm
23:53 13.7 °C 11.1 °C 1021.9 hPa Calm     84 % 0.0 mm
23:55 12.1 °C 10.3 °C 1020.9 hPa WSW 1.6 km/h 1.6 km/h 89 % 0.0 mm
23:58 13.7 °C 11.2 °C 1021.9 hPa Calm     85 % 0.0 mm
Meteo Sesrovires
Elogis d' Weather Underground - 3.5 mb

Guio original per  Jim McMurry - jmcmurry@mwt.net Adaptat per a la plantilla per  Wim van der Kuil - Leuven-Template.eu

Trobareu la nostra informacio del temps tambe a:

Weather Underground

AWEKAS